Time;durP1;ratioP1;P1;durP2;ratioP2;P2;SDS_P1;SDS_P2;PMS_P1;PMS_P2;Temp;Humidity;BMP_temperature;BMP_pressure;BME280_temperature;BME280_humidity;BME280_pressure;Samples;Min_cycle;Max_cycle;Signal;HPM_P1;HPM_P2
2022/08/25 00:01:39;;;;;;;7.33;4.93;;;20.50;67.20;;;;;;5014853;28;20470;-60
2022/08/25 00:04:12;;;;;;;7.77;4.50;;;20.50;67.70;;;;;;5013205;28;20442;-60
2022/08/25 00:06:41;;;;;;;6.30;4.67;;;20.40;68.00;;;;;;5014166;28;20493;-58
2022/08/25 00:09:10;;;;;;;6.70;4.70;;;20.40;68.50;;;;;;5013850;28;20461;-59
2022/08/25 00:11:38;;;;;;;7.10;5.00;;;20.40;69.00;;;;;;5013010;28;20541;-58
2022/08/25 00:14:09;;;;;;;6.60;4.90;;;20.30;69.40;;;;;;5012493;28;20445;-58
2022/08/25 00:16:36;;;;;;;7.20;4.50;;;20.30;69.80;;;;;;5012764;28;21029;-59
2022/08/25 00:19:09;;;;;;;6.53;4.53;;;20.20;70.20;;;;;;5012978;28;20481;-59
2022/08/25 00:21:37;;;;;;;5.57;4.20;;;20.20;70.80;;;;;;5012418;28;20970;-59
2022/08/25 00:24:04;;;;;;;6.47;4.80;;;20.20;71.40;;;;;;5013802;28;20446;-58
2022/08/25 00:26:31;;;;;;;12.20;4.90;;;20.10;71.70;;;;;;5016590;28;21033;-58
2022/08/25 00:28:59;;;;;;;9.60;5.40;;;20.10;72.20;;;;;;5017014;28;20523;-58
2022/08/25 00:31:26;;;;;;;8.87;4.70;;;20.10;72.80;;;;;;5016392;28;20466;-58
2022/08/25 00:33:54;;;;;;;9.27;4.70;;;20.00;73.30;;;;;;5016732;28;20456;-58
2022/08/25 00:36:22;;;;;;;6.53;4.87;;;20.00;73.80;;;;;;5017008;28;20472;-59
2022/08/25 00:38:50;;;;;;;6.27;4.70;;;20.00;74.30;;;;;;5017078;28;20529;-59
2022/08/25 00:41:20;;;;;;;7.27;4.80;;;19.90;74.80;;;;;;5015944;28;20480;-59
2022/08/25 00:43:50;;;;;;;11.47;4.90;;;19.90;75.20;;;;;;5016462;28;20521;-59
2022/08/25 00:46:21;;;;;;;6.73;5.13;;;19.90;75.80;;;;;;4999192;28;20442;-58
2022/08/25 00:48:53;;;;;;;7.07;5.40;;;19.80;76.20;;;;;;5016312;28;20533;-59
2022/08/25 00:51:29;;;;;;;6.80;5.47;;;19.80;76.90;;;;;;5006963;28;20558;-59
2022/08/25 00:53:56;;;;;;;8.40;5.50;;;19.80;77.50;;;;;;5016371;28;20441;-58
2022/08/25 00:56:25;;;;;;;5.13;4.63;;;19.80;78.10;;;;;;5016311;28;20568;-58
2022/08/25 00:58:53;;;;;;;7.53;5.27;;;19.70;78.50;;;;;;5016012;28;20966;-58
2022/08/25 01:01:20;;;;;;;8.90;6.17;;;19.70;79.30;;;;;;5016255;28;20470;-58
2022/08/25 01:03:47;;;;;;;7.23;5.07;;;19.70;79.80;;;;;;5016445;28;20532;-59
2022/08/25 01:06:15;;;;;;;10.37;5.93;;;19.70;80.10;;;;;;5016323;28;20930;-58
2022/08/25 01:08:43;;;;;;;8.10;5.53;;;19.70;80.50;;;;;;5016335;28;20524;-58
2022/08/25 01:11:12;;;;;;;7.60;5.90;;;19.70;81.10;;;;;;5016026;28;21096;-59
2022/08/25 01:13:43;;;;;;;10.53;5.57;;;19.70;81.50;;;;;;5016039;28;20482;-59
2022/08/25 01:16:11;;;;;;;6.50;5.90;;;19.70;82.10;;;;;;5016680;28;20835;-58
2022/08/25 01:18:51;;;;;;;8.80;5.83;;;19.70;82.40;;;;;;5016605;28;20528;-59
2022/08/25 01:21:22;;;;;;;7.67;6.37;;;19.60;82.80;;;;;;5015985;28;20473;-58
2022/08/25 01:23:51;;;;;;;8.50;6.60;;;19.60;83.40;;;;;;5015958;28;20533;-58
2022/08/25 01:26:22;;;;;;;8.10;5.53;;;19.60;84.20;;;;;;5015782;28;20458;-59
2022/08/25 01:31:36;;;;;;;14.20;6.30;;;19.60;85.00;;;;;;5015987;28;20472;-58
2022/08/25 01:34:04;;;;;;;11.90;5.77;;;19.50;85.40;;;;;;5015542;28;20453;-58
2022/08/25 01:36:35;;;;;;;7.10;5.67;;;19.50;86.00;;;;;;5015162;28;20572;-58
2022/08/25 01:39:03;;;;;;;7.93;6.07;;;19.50;86.80;;;;;;5015748;28;20880;-58
2022/08/25 01:41:54;;;;;;;10.93;6.33;;;19.40;87.50;;;;;;5015971;28;20909;-58
2022/08/25 01:44:21;;;;;;;7.30;5.87;;;19.40;88.10;;;;;;5019121;28;20442;-58
2022/08/25 01:46:48;;;;;;;12.50;6.90;;;19.40;88.80;;;;;;5015218;28;21034;-59
2022/08/25 01:49:15;;;;;;;7.10;5.60;;;19.30;89.10;;;;;;5015265;28;20477;-58
2022/08/25 01:51:48;;;;;;;9.43;6.57;;;19.30;89.70;;;;;;5015456;28;20990;-58
2022/08/25 01:54:15;;;;;;;9.60;6.53;;;19.30;90.00;;;;;;5015048;28;20533;-59
2022/08/25 01:56:43;;;;;;;9.00;7.00;;;19.30;90.20;;;;;;5014964;28;21085;-60
2022/08/25 01:59:10;;;;;;;9.83;6.20;;;19.30;90.30;;;;;;5015051;28;20478;-58
2022/08/25 02:01:38;;;;;;;9.90;6.27;;;19.20;90.50;;;;;;5015120;28;20474;-58
2022/08/25 02:04:06;;;;;;;8.60;6.53;;;19.20;90.80;;;;;;5015139;28;20617;-58
2022/08/25 02:06:34;;;;;;;11.10;6.57;;;19.20;90.90;;;;;;5014979;28;20457;-58
2022/08/25 02:09:06;;;;;;;10.53;8.23;;;19.10;91.10;;;;;;5015041;28;20504;-58
2022/08/25 02:11:34;;;;;;;8.90;6.60;;;19.10;91.50;;;;;;5015072;28;20550;-58
2022/08/25 02:14:01;;;;;;;9.27;7.10;;;19.10;91.70;;;;;;5014536;28;20540;-59
2022/08/25 02:16:31;;;;;;;9.33;6.67;;;19.10;91.90;;;;;;5014677;28;20784;-58
2022/08/25 02:18:59;;;;;;;10.27;7.03;;;19.10;92.10;;;;;;5016068;28;20537;-58
2022/08/25 02:21:27;;;;;;;11.60;7.07;;;19.00;92.20;;;;;;5015304;28;20574;-58
2022/08/25 02:23:55;;;;;;;11.50;7.47;;;19.00;92.40;;;;;;5015571;28;20450;-58
2022/08/25 02:26:24;;;;;;;7.97;7.17;;;19.00;92.60;;;;;;5015443;28;20505;-58
2022/08/25 02:28:52;;;;;;;9.57;8.40;;;19.00;93.00;;;;;;5016372;28;20544;-58
2022/08/25 02:31:23;;;;;;;12.20;7.73;;;19.00;93.10;;;;;;5015469;28;20545;-59
2022/08/25 02:33:51;;;;;;;9.93;7.60;;;19.00;93.20;;;;;;5015533;28;20541;-58
2022/08/25 02:36:18;;;;;;;9.27;7.20;;;19.00;93.50;;;;;;5014969;28;20478;-58
2022/08/25 02:38:45;;;;;;;13.33;7.13;;;18.90;93.60;;;;;;5014659;28;20537;-59
2022/08/25 02:41:15;;;;;;;8.47;6.77;;;18.90;93.80;;;;;;5014755;28;20465;-58
2022/08/25 02:43:44;;;;;;;11.87;7.60;;;18.80;93.90;;;;;;5014446;28;20541;-59
2022/08/25 02:46:12;;;;;;;11.17;8.60;;;18.80;94.20;;;;;;5014486;28;20454;-59
2022/08/25 02:48:40;;;;;;;13.53;9.00;;;18.80;94.50;;;;;;5013115;28;20533;-59
2022/08/25 02:51:10;;;;;;;10.80;7.90;;;18.70;94.70;;;;;;5014180;28;20544;-59
2022/08/25 02:53:39;;;;;;;11.00;7.03;;;18.70;95.00;;;;;;5014528;28;20446;-59
2022/08/25 02:56:08;;;;;;;7.30;6.60;;;18.70;95.20;;;;;;5014699;28;20564;-57
2022/08/25 02:58:36;;;;;;;10.10;7.83;;;18.70;95.50;;;;;;5015087;28;20445;-58
2022/08/25 03:01:05;;;;;;;9.10;7.07;;;18.70;95.90;;;;;;5014331;28;20564;-58
2022/08/25 03:03:33;;;;;;;10.97;8.40;;;18.60;95.80;;;;;;5014954;28;20504;-58
2022/08/25 03:06:01;;;;;;;10.10;8.33;;;18.60;96.00;;;;;;5014578;28;20472;-59
2022/08/25 03:08:30;;;;;;;9.37;8.47;;;18.60;96.20;;;;;;5015038;28;20456;-58
2022/08/25 03:10:57;;;;;;;9.67;8.00;;;18.60;96.30;;;;;;5014351;28;21064;-58
2022/08/25 03:13:24;;;;;;;10.00;8.70;;;18.60;96.50;;;;;;5014644;28;20500;-59
2022/08/25 03:15:53;;;;;;;10.47;8.87;;;18.60;96.80;;;;;;5013476;28;20565;-58
2022/08/25 03:18:22;;;;;;;10.00;8.60;;;18.50;97.00;;;;;;5014311;28;20596;-58
2022/08/25 03:20:49;;;;;;;10.17;8.30;;;18.50;97.10;;;;;;5014613;28;20477;-57
2022/08/25 03:23:17;;;;;;;9.10;7.93;;;18.50;97.40;;;;;;5014130;28;20811;-58
2022/08/25 03:28:30;;;;;;;10.20;8.67;;;18.40;97.90;;;;;;5013616;28;20514;-59
2022/08/25 03:30:59;;;;;;;10.90;8.60;;;18.40;98.10;;;;;;5002554;28;20944;-59
2022/08/25 03:33:27;;;;;;;13.77;9.20;;;18.40;98.30;;;;;;5013435;28;20542;-58
2022/08/25 03:35:55;;;;;;;11.53;8.77;;;18.40;98.50;;;;;;5013013;28;20577;-59
2022/08/25 03:38:23;;;;;;;14.83;9.33;;;18.30;98.60;;;;;;5013622;28;20453;-59
2022/08/25 03:40:50;;;;;;;11.77;9.37;;;18.30;98.80;;;;;;5013753;28;20466;-58
2022/08/25 03:43:17;;;;;;;12.93;9.40;;;18.30;99.10;;;;;;5013374;28;20834;-59
2022/08/25 03:45:46;;;;;;;12.63;9.97;;;18.30;99.20;;;;;;5013044;28;20481;-59
2022/08/25 03:48:14;;;;;;;10.17;9.03;;;18.30;99.50;;;;;;5012482;28;20532;-58
2022/08/25 03:50:47;;;;;;;14.73;9.80;;;18.30;99.60;;;;;;5012971;28;20534;-61
2022/08/25 03:53:14;;;;;;;11.13;9.73;;;18.30;99.90;;;;;;5013675;28;20521;-59
2022/08/25 03:55:41;;;;;;;13.37;10.00;;;18.20;99.90;;;;;;5013150;28;20564;-58
2022/08/25 03:58:09;;;;;;;14.63;10.13;;;18.20;99.90;;;;;;5012598;28;20450;-59
2022/08/25 04:00:36;;;;;;;14.77;10.67;;;18.20;99.90;;;;;;5012441;28;20807;-60
2022/08/25 04:03:03;;;;;;;10.50;9.40;;;18.20;99.90;;;;;;5012610;28;20457;-56
2022/08/25 04:05:31;;;;;;;9.90;8.90;;;18.20;99.90;;;;;;5013059;28;20446;-58
2022/08/25 04:10:11;;;;;;;14.60;9.37;;;18.10;99.90;;;;;;5112454;27;20556;-58
2022/08/25 04:12:39;;;;;;;14.50;10.13;;;18.10;99.90;;;;;;5116637;28;20522;-59
2022/08/25 04:15:07;;;;;;;13.83;10.57;;;18.10;99.90;;;;;;5096941;28;20442;-59
2022/08/25 04:17:37;;;;;;;13.07;9.87;;;18.10;99.90;;;;;;5092293;28;20516;-58
2022/08/25 04:20:07;;;;;;;14.67;10.30;;;18.10;99.90;;;;;;5092028;28;20442;-58
2022/08/25 04:22:35;;;;;;;14.30;10.73;;;18.10;99.90;;;;;;5110392;28;20858;-59
2022/08/25 04:25:02;;;;;;;14.07;10.73;;;18.10;99.90;;;;;;5110278;28;20445;-59
2022/08/25 04:27:31;;;;;;;15.40;9.80;;;18.10;99.90;;;;;;5110495;28;20469;-59
2022/08/25 04:29:59;;;;;;;14.00;11.40;;;18.10;99.90;;;;;;5109824;28;20564;-58
2022/08/25 04:32:26;;;;;;;15.93;10.90;;;18.10;99.90;;;;;;5089964;28;20494;-58
2022/08/25 04:34:53;;;;;;;13.90;11.50;;;18.10;99.90;;;;;;5089959;28;20939;-58
2022/08/25 04:37:20;;;;;;;13.97;10.50;;;18.10;99.90;;;;;;5089960;28;20529;-59
2022/08/25 04:39:47;;;;;;;13.60;10.77;;;18.20;99.90;;;;;;5090129;28;20533;-59
2022/08/25 04:42:15;;;;;;;11.70;10.50;;;18.20;99.90;;;;;;5091793;28;20546;-59
2022/08/25 04:44:43;;;;;;;13.70;10.57;;;18.30;99.90;;;;;;5089545;28;20537;-59
2022/08/25 04:47:11;;;;;;;12.97;10.57;;;18.40;99.90;;;;;;5089958;28;20546;-59
2022/08/25 04:49:38;;;;;;;12.07;10.77;;;18.50;99.90;;;;;;5103255;28;20501;-59
2022/08/25 04:52:05;;;;;;;17.70;11.53;;;18.60;99.90;;;;;;5091980;28;20498;-60
2022/08/25 04:54:33;;;;;;;14.90;10.70;;;18.70;99.90;;;;;;5090521;28;20481;-58
2022/08/25 04:57:00;;;;;;;16.20;10.70;;;18.80;99.90;;;;;;5102167;28;20528;-58
2022/08/25 04:59:28;;;;;;;14.53;11.40;;;18.90;99.90;;;;;;5095608;28;20447;-58
2022/08/25 05:01:57;;;;;;;13.03;9.90;;;19.10;99.90;;;;;;5094141;28;20544;-57
2022/08/25 05:04:25;;;;;;;12.90;11.60;;;19.20;99.90;;;;;;5092622;28;20450;-57
2022/08/25 05:06:52;;;;;;;11.97;9.80;;;19.30;99.90;;;;;;5108789;28;20441;-58
2022/08/25 05:09:19;;;;;;;14.60;12.00;;;19.40;99.90;;;;;;5076665;28;21017;-59
2022/08/25 05:11:46;;;;;;;13.47;11.57;;;19.50;99.90;;;;;;5110705;28;20572;-58
2022/08/25 05:14:17;;;;;;;13.50;10.73;;;19.60;99.90;;;;;;5110286;28;20540;-58
2022/08/25 05:16:44;;;;;;;13.13;10.20;;;19.60;99.90;;;;;;5093277;28;20451;-58
2022/08/25 05:19:12;;;;;;;15.30;11.23;;;19.80;99.90;;;;;;5090912;28;20871;-59
2022/08/25 05:21:40;;;;;;;11.40;10.30;;;19.80;99.90;;;;;;5077688;28;20474;-57
2022/08/25 05:24:07;;;;;;;15.30;12.00;;;19.90;99.90;;;;;;5072788;28;20775;-57
2022/08/25 05:26:36;;;;;;;14.60;11.83;;;19.90;99.90;;;;;;5093431;28;20446;-57
2022/08/25 05:29:05;;;;;;;14.53;11.57;;;19.80;99.90;;;;;;5091650;28;20845;-57
2022/08/25 05:31:34;;;;;;;13.57;11.83;;;19.80;99.90;;;;;;5076083;28;20471;-57
2022/08/25 05:34:06;;;;;;;17.27;13.67;;;19.80;99.90;;;;;;5075544;28;20944;-58
2022/08/25 05:36:35;;;;;;;14.70;12.23;;;19.70;99.90;;;;;;5075820;28;20438;-57
2022/08/25 05:39:03;;;;;;;14.43;12.50;;;19.70;99.90;;;;;;5076582;28;20458;-57
2022/08/25 05:41:32;;;;;;;17.13;12.07;;;19.60;99.90;;;;;;5082640;28;20498;-57
2022/08/25 05:43:59;;;;;;;15.30;12.97;;;19.60;99.90;;;;;;5086347;28;20554;-60
2022/08/25 05:46:26;;;;;;;14.43;12.93;;;19.60;99.90;;;;;;5082858;28;20439;-59
2022/08/25 05:48:54;;;;;;;15.97;12.80;;;19.50;99.90;;;;;;5081046;28;21055;-59
2022/08/25 05:51:21;;;;;;;16.60;13.87;;;19.50;99.90;;;;;;5076712;28;20834;-58
2022/08/25 05:53:51;;;;;;;19.70;13.60;;;19.60;99.90;;;;;;5075970;28;20941;-58
2022/08/25 05:56:20;;;;;;;14.50;11.87;;;19.60;99.90;;;;;;5079427;28;20950;-58
2022/08/25 05:58:47;;;;;;;19.00;13.43;;;19.60;99.90;;;;;;5075432;28;20478;-58
2022/08/25 06:04:08;;;;;;;17.03;14.10;;;19.80;99.90;;;;;;5075168;28;20480;-59
2022/08/25 06:06:35;;;;;;;17.83;13.40;;;19.90;99.90;;;;;;5089872;28;20490;-57
2022/08/25 06:09:07;;;;;;;14.40;12.80;;;20.00;99.90;;;;;;5078529;28;20586;-59
2022/08/25 06:11:36;;;;;;;16.67;12.43;;;20.00;99.90;;;;;;5075572;28;20478;-58
2022/08/25 06:14:03;;;;;;;15.97;12.80;;;20.10;99.90;;;;;;5074222;28;20915;-57
2022/08/25 06:16:31;;;;;;;15.33;11.93;;;20.20;99.90;;;;;;5074087;28;20451;-58
2022/08/25 06:18:58;;;;;;;14.17;12.07;;;20.30;99.90;;;;;;5074303;28;20443;-58
2022/08/25 06:21:25;;;;;;;19.37;12.93;;;20.50;99.90;;;;;;5074382;28;20570;-57
2022/08/25 06:23:52;;;;;;;14.00;12.50;;;20.60;99.90;;;;;;5082008;28;20514;-58
2022/08/25 06:26:21;;;;;;;12.87;11.50;;;20.80;99.60;;;;;;5094505;28;20466;-58
2022/08/25 06:28:49;;;;;;;17.23;12.10;;;20.90;99.30;;;;;;5094250;28;20990;-59
2022/08/25 06:31:17;;;;;;;16.80;12.27;;;21.00;99.00;;;;;;5081707;28;20500;-58
2022/08/25 06:33:45;;;;;;;14.73;11.57;;;21.10;98.90;;;;;;5075545;28;20487;-58
2022/08/25 06:36:12;;;;;;;13.13;11.73;;;21.10;98.70;;;;;;5091903;28;20530;-58
2022/08/25 06:38:39;;;;;;;15.13;11.53;;;21.20;98.60;;;;;;5094215;28;20482;-57
2022/08/25 06:41:09;;;;;;;18.87;12.37;;;21.30;98.40;;;;;;5094171;28;20837;-58
2022/08/25 06:43:39;;;;;;;16.53;13.40;;;21.40;98.10;;;;;;5095452;28;20454;-58
2022/08/25 06:46:11;;;;;;;17.43;13.00;;;21.50;97.90;;;;;;5097928;28;20448;-59
2022/08/25 06:48:39;;;;;;;18.27;13.73;;;21.50;97.80;;;;;;5101400;28;20448;-62
2022/08/25 06:51:08;;;;;;;13.87;12.23;;;21.60;97.50;;;;;;5079611;28;20900;-57
2022/08/25 06:53:36;;;;;;;16.60;12.50;;;21.80;97.40;;;;;;5074906;28;20547;-58
2022/08/25 06:56:04;;;;;;;14.70;12.67;;;21.80;97.10;;;;;;5074188;28;20510;-58
2022/08/25 06:58:31;;;;;;;14.33;11.47;;;21.90;96.90;;;;;;5080205;28;20897;-59
2022/08/25 07:01:09;;;;;;;15.43;13.83;;;21.90;96.70;;;;;;5090747;28;20526;-59
2022/08/25 07:03:36;;;;;;;17.67;12.80;;;22.10;96.50;;;;;;5082188;28;20462;-59
2022/08/25 07:06:04;;;;;;;15.60;12.20;;;22.20;96.30;;;;;;5077397;28;20807;-59
2022/08/25 07:08:31;;;;;;;15.97;12.33;;;22.30;96.10;;;;;;5084487;28;20685;-58
2022/08/25 07:10:58;;;;;;;14.37;12.83;;;22.40;95.70;;;;;;5093548;28;20511;-58
2022/08/25 07:13:26;;;;;;;13.27;12.00;;;22.50;95.50;;;;;;5093380;28;20540;-58
2022/08/25 07:15:55;;;;;;;14.53;12.03;;;22.60;95.20;;;;;;5093041;28;20515;-57
2022/08/25 07:18:24;;;;;;;14.03;10.77;;;22.70;95.00;;;;;;5093029;28;20450;-57
2022/08/25 07:20:52;;;;;;;18.30;12.03;;;22.80;94.80;;;;;;5083682;28;20464;-57
2022/08/25 07:23:20;;;;;;;16.93;11.93;;;22.80;94.50;;;;;;5073462;28;20523;-58
2022/08/25 07:25:48;;;;;;;14.73;11.07;;;22.90;94.30;;;;;;5073097;28;20453;-59
2022/08/25 07:28:17;;;;;;;13.40;11.57;;;23.00;94.00;;;;;;5073268;28;20894;-58
2022/08/25 07:30:44;;;;;;;16.47;10.97;;;23.10;93.80;;;;;;5085503;28;21080;-57
2022/08/25 07:33:11;;;;;;;13.80;10.87;;;23.20;93.50;;;;;;5093579;28;20525;-57
2022/08/25 07:35:39;;;;;;;13.63;11.87;;;23.30;93.10;;;;;;5093347;28;20635;-58
2022/08/25 07:38:08;;;;;;;12.93;11.27;;;23.40;92.70;;;;;;5094360;28;20485;-58
2022/08/25 07:40:37;;;;;;;13.70;12.20;;;23.60;92.50;;;;;;5093347;28;20442;-58
2022/08/25 07:43:07;;;;;;;12.80;11.40;;;23.70;92.10;;;;;;5092861;28;20825;-59
2022/08/25 07:45:38;;;;;;;11.60;10.30;;;23.80;91.70;;;;;;5079328;28;20539;-58
2022/08/25 07:48:08;;;;;;;14.33;11.33;;;23.90;91.50;;;;;;5082024;28;20443;-59
2022/08/25 07:50:37;;;;;;;13.20;11.67;;;24.10;91.40;;;;;;5092881;28;20472;-58
2022/08/25 07:53:06;;;;;;;13.13;10.33;;;24.10;90.80;;;;;;5092882;28;20988;-57
2022/08/25 07:55:35;;;;;;;14.03;11.27;;;24.20;90.50;;;;;;5090260;28;20538;-59
2022/08/25 07:58:03;;;;;;;14.67;11.40;;;24.30;90.30;;;;;;5073745;28;20507;-59
2022/08/25 08:00:33;;;;;;;14.13;12.60;;;24.40;90.00;;;;;;5080601;28;20528;-60
2022/08/25 08:03:01;;;;;;;14.97;11.13;;;24.60;89.40;;;;;;5072541;28;20459;-58
2022/08/25 08:05:28;;;;;;;17.00;12.93;;;24.70;88.70;;;;;;5072686;28;20624;-58
2022/08/25 08:07:56;;;;;;;15.27;12.47;;;24.70;88.10;;;;;;5073588;28;20884;-58
2022/08/25 08:10:25;;;;;;;14.87;12.40;;;24.80;87.60;;;;;;5072500;28;20478;-57
2022/08/25 08:12:53;;;;;;;13.47;12.07;;;25.00;87.20;;;;;;5072297;28;20555;-62
2022/08/25 08:15:20;;;;;;;13.20;11.80;;;25.10;86.50;;;;;;5052643;28;20530;-58
2022/08/25 08:17:48;;;;;;;15.40;12.43;;;25.20;86.10;;;;;;5052315;28;20530;-58
2022/08/25 08:20:15;;;;;;;15.07;11.17;;;25.30;85.50;;;;;;5052260;28;20991;-57
2022/08/25 08:22:44;;;;;;;16.30;13.30;;;25.30;85.00;;;;;;5052316;28;20494;-58
2022/08/25 08:25:11;;;;;;;13.80;12.40;;;25.50;84.40;;;;;;5082713;28;20450;-58
2022/08/25 08:27:41;;;;;;;13.93;12.10;;;25.50;83.70;;;;;;5072196;28;20484;-59
2022/08/25 08:30:10;;;;;;;13.47;11.97;;;25.60;83.20;;;;;;5075197;28;20479;-61
2022/08/25 08:32:37;;;;;;;14.60;12.50;;;25.60;83.00;;;;;;5089487;28;20591;-60
2022/08/25 08:35:05;;;;;;;14.27;12.37;;;25.70;82.80;;;;;;5092674;28;20483;-58
2022/08/25 08:37:33;;;;;;;15.00;12.20;;;25.80;82.40;;;;;;5093827;28;20828;-59
2022/08/25 08:40:01;;;;;;;14.23;12.37;;;25.90;81.80;;;;;;5092251;28;20446;-57
2022/08/25 08:42:51;;;;;;;15.23;12.83;;;25.90;81.20;;;;;;5073183;28;20502;-57
2022/08/25 08:45:34;;;;;;;15.07;12.80;;;26.00;80.80;;;;;;5071985;28;20434;-57
2022/08/25 08:48:31;;;;;;;14.57;11.87;;;26.00;80.50;;;;;;5073855;28;20450;-56
2022/08/25 08:51:14;;;;;;;14.50;12.40;;;26.10;80.00;;;;;;5064293;28;20490;-59
2022/08/25 08:53:45;;;;;;;15.77;12.10;;;26.20;79.40;;;;;;5075393;28;20456;-58
2022/08/25 08:56:16;;;;;;;16.77;10.50;;;26.30;79.00;;;;;;5074624;28;20431;-57
2022/08/25 08:58:49;;;;;;;14.10;11.23;;;26.40;78.60;;;;;;5076234;28;20476;-58
2022/08/25 09:01:23;;;;;;;17.53;11.50;;;26.50;77.80;;;;;;5056060;28;20566;-59
2022/08/25 09:03:55;;;;;;;12.10;10.80;;;26.60;77.10;;;;;;5055566;28;20901;-59
2022/08/25 09:06:29;;;;;;;12.07;9.87;;;26.60;76.60;;;;;;5055341;28;20915;-59
2022/08/25 09:09:02;;;;;;;14.73;10.37;;;26.70;76.00;;;;;;5055515;28;20510;-59
2022/08/25 09:11:44;;;;;;;14.60;10.97;;;27.00;75.10;;;;;;5055618;28;20494;-59
2022/08/25 09:14:29;;;;;;;14.97;10.50;;;27.30;74.10;;;;;;5072438;28;20530;-59
2022/08/25 09:17:04;;;;;;;13.33;11.43;;;27.50;72.90;;;;;;5095127;28;20468;-58
2022/08/25 09:20:09;;;;;;;11.33;10.23;;;27.70;71.70;;;;;;5091857;28;20665;-58
2022/08/25 09:22:50;;;;;;;12.30;10.97;;;27.60;71.50;;;;;;5075353;28;20461;-59
2022/08/25 09:25:22;;;;;;;13.17;10.87;;;27.70;71.00;;;;;;5075341;28;20430;-59
2022/08/25 09:27:56;;;;;;;10.47;9.37;;;27.70;70.30;;;;;;5075292;28;20902;-59
2022/08/25 09:30:25;;;;;;;11.70;9.37;;;27.90;69.50;;;;;;5076765;28;20557;-59
2022/08/25 09:33:02;;;;;;;13.53;10.00;;;27.90;68.90;;;;;;5095095;28;20534;-59
2022/08/25 09:35:32;;;;;;;11.90;10.60;;;28.00;68.50;;;;;;5093322;28;20437;-59
2022/08/25 09:38:02;;;;;;;11.30;10.13;;;28.20;67.70;;;;;;5095154;28;20547;-59
2022/08/25 09:40:31;;;;;;;12.80;9.27;;;28.30;67.10;;;;;;5095664;28;20528;-60
2022/08/25 09:43:00;;;;;;;11.30;9.57;;;28.40;66.40;;;;;;5095325;28;20526;-58
2022/08/25 09:45:38;;;;;;;9.87;8.97;;;28.50;65.50;;;;;;5095659;28;20836;-60
2022/08/25 09:48:21;;;;;;;15.37;9.50;;;28.50;64.50;;;;;;5079415;28;20449;-58
2022/08/25 09:50:51;;;;;;;10.07;9.17;;;28.70;63.90;;;;;;5083321;28;20500;-59
2022/08/25 09:53:19;;;;;;;12.10;9.00;;;28.80;63.20;;;;;;5095242;28;20969;-59
2022/08/25 09:55:54;;;;;;;11.23;8.67;;;29.00;62.40;;;;;;5094903;28;20535;-58
2022/08/25 09:58:24;;;;;;;10.73;8.37;;;29.20;61.10;;;;;;5094901;28;20428;-61
2022/08/25 10:01:06;;;;;;;10.50;8.10;;;29.40;60.20;;;;;;5087199;28;20550;-59
2022/08/25 10:03:34;;;;;;;11.97;9.00;;;29.60;59.60;;;;;;5074782;28;20472;-59
2022/08/25 10:06:05;;;;;;;10.10;9.10;;;29.80;59.00;;;;;;5087373;28;20532;-59
2022/08/25 10:08:37;;;;;;;10.03;9.10;;;29.90;58.20;;;;;;5094228;28;20564;-60
2022/08/25 10:11:08;;;;;;;11.20;8.37;;;29.90;57.60;;;;;;5094572;28;20566;-59
2022/08/25 10:13:39;;;;;;;10.60;8.60;;;29.70;57.70;;;;;;5095382;28;20429;-60
2022/08/25 10:16:12;;;;;;;9.63;8.60;;;29.70;58.00;;;;;;5094013;28;20528;-60
2022/08/25 10:18:39;;;;;;;10.87;9.70;;;29.80;57.50;;;;;;5094450;28;20528;-59
2022/08/25 10:21:11;;;;;;;10.27;9.27;;;29.80;57.00;;;;;;5085492;28;20484;-58
2022/08/25 10:23:43;;;;;;;12.67;8.50;;;29.70;56.70;;;;;;5073564;28;20434;-59
2022/08/25 10:26:20;;;;;;;11.33;9.17;;;29.50;56.90;;;;;;5082274;28;20440;-58
2022/08/25 10:29:16;;;;;;;10.10;8.63;;;29.20;57.30;;;;;;5093668;28;20434;-60
2022/08/25 10:31:51;;;;;;;15.20;10.83;;;29.00;57.90;;;;;;5094071;28;20694;-59
2022/08/25 10:34:34;;;;;;;10.67;9.37;;;28.90;58.20;;;;;;5077081;28;20455;-59
2022/08/25 10:37:12;;;;;;;11.07;9.67;;;28.80;58.30;;;;;;5092823;28;20525;-60
2022/08/25 10:39:42;;;;;;;9.87;8.67;;;28.90;58.40;;;;;;5093952;28;20519;-58
2022/08/25 10:42:30;;;;;;;12.80;9.27;;;29.00;57.90;;;;;;5094006;28;20473;-58
2022/08/25 10:48:25;;;;;;;10.90;9.47;;;29.00;57.70;;;;;;5093832;28;20410;-59
2022/08/25 10:50:58;;;;;;;12.03;9.47;;;29.00;57.50;;;;;;5086771;28;20537;-61
2022/08/25 10:53:29;;;;;;;15.97;10.43;;;29.00;57.50;;;;;;5086295;28;20486;-60
2022/08/25 10:56:06;;;;;;;11.10;10.00;;;28.90;58.00;;;;;;5093589;28;20946;-60
2022/08/25 10:59:00;;;;;;;15.77;10.23;;;28.70;58.50;;;;;;5093683;28;20451;-60
2022/08/25 11:01:38;;;;;;;11.50;10.20;;;28.80;58.80;;;;;;5091286;28;20857;-59
2022/08/25 11:04:10;;;;;;;12.30;10.70;;;28.70;58.70;;;;;;5093529;28;20783;-59
2022/08/25 11:06:42;;;;;;;14.17;10.80;;;28.60;58.90;;;;;;5091939;28;20880;-59
2022/08/25 11:09:13;;;;;;;11.37;9.33;;;28.70;59.10;;;;;;5093224;28;20462;-58
2022/08/25 11:11:47;;;;;;;10.87;9.73;;;28.90;58.60;;;;;;5074403;28;20547;-62
2022/08/25 11:14:21;;;;;;;9.53;8.63;;;29.30;57.70;;;;;;5073680;28;20450;-60
2022/08/25 11:16:53;;;;;;;12.30;10.40;;;29.60;57.00;;;;;;5074279;28;20941;-60
2022/08/25 11:19:26;;;;;;;12.70;9.37;;;29.70;56.40;;;;;;5072945;28;20510;-60
2022/08/25 11:22:08;;;;;;;10.30;9.43;;;29.80;56.20;;;;;;5073971;28;20470;-60
2022/08/25 11:24:47;;;;;;;12.97;10.07;;;29.90;55.90;;;;;;5074868;28;20434;-60
2022/08/25 11:27:22;;;;;;;10.90;9.40;;;29.90;55.60;;;;;;5093876;28;20457;-61
2022/08/25 11:29:58;;;;;;;12.10;9.20;;;29.90;55.50;;;;;;5073374;28;20455;-60
2022/08/25 11:32:26;;;;;;;10.07;9.07;;;29.80;55.50;;;;;;5073142;28;20559;-59
2022/08/25 11:34:55;;;;;;;11.57;9.53;;;29.70;55.50;;;;;;5077030;28;20476;-60
2022/08/25 11:37:27;;;;;;;12.00;9.23;;;29.70;55.70;;;;;;5091679;28;20477;-59
2022/08/25 11:40:08;;;;;;;10.30;9.20;;;29.80;55.60;;;;;;5092896;28;20944;-60
2022/08/25 11:42:46;;;;;;;9.00;8.10;;;29.90;55.40;;;;;;5093289;28;20847;-59
2022/08/25 11:45:33;;;;;;;9.10;8.20;;;30.00;55.00;;;;;;5087022;28;20843;-59
2022/08/25 11:48:14;;;;;;;10.67;8.90;;;30.20;54.30;;;;;;5072900;28;20952;-58
2022/08/25 11:51:00;;;;;;;9.97;7.60;;;30.60;53.50;;;;;;5087833;28;20494;-60
2022/08/25 11:55:57;;;;;;;10.73;9.77;;;31.20;51.90;;;;;;5103651;22;20530;-57
2022/08/25 11:58:33;;;;;;;11.97;8.40;;;31.10;51.80;;;;;;5072464;28;20443;-57
2022/08/25 12:01:02;;;;;;;12.80;10.60;;;31.00;51.80;;;;;;5072352;28;20472;-56
2022/08/25 12:03:49;;;;;;;10.53;7.83;;;30.80;52.10;;;;;;5071635;28;20523;-57
2022/08/25 12:06:29;;;;;;;8.67;7.77;;;31.00;51.70;;;;;;5054648;28;20914;-57
2022/08/25 12:09:16;;;;;;;9.23;8.00;;;31.20;51.20;;;;;;5046343;28;20443;-58
2022/08/25 12:11:47;;;;;;;9.13;8.23;;;31.60;50.50;;;;;;5032662;28;20548;-56
2022/08/25 12:14:42;;;;;;;8.13;7.37;;;31.70;50.20;;;;;;5032326;28;20562;-56
2022/08/25 12:17:23;;;;;;;8.80;7.60;;;31.80;49.80;;;;;;5058108;28;20450;-57
2022/08/25 12:19:53;;;;;;;8.63;7.87;;;31.90;49.30;;;;;;5052432;28;20833;-56
2022/08/25 12:22:55;;;;;;;11.17;7.13;;;31.90;50.00;;;;;;5052463;28;20481;-57
2022/08/25 12:25:50;;;;;;;8.67;7.07;;;31.50;50.00;;;;;;5052606;28;20466;-56
2022/08/25 12:28:45;;;;;;;13.13;9.10;;;31.30;50.50;;;;;;5052124;28;20484;-56
2022/08/25 12:31:23;;;;;;;9.07;8.10;;;31.10;50.70;;;;;;5054672;28;20991;-56
2022/08/25 12:34:04;;;;;;;13.37;8.80;;;31.10;50.60;;;;;;5056577;28;20556;-58
2022/08/25 12:36:33;;;;;;;10.17;8.63;;;31.10;50.50;;;;;;5056245;28;20442;-57
2022/08/25 12:39:19;;;;;;;11.60;8.30;;;31.10;50.30;;;;;;5056105;28;20540;-57
2022/08/25 12:41:56;;;;;;;8.20;7.40;;;30.90;50.40;;;;;;5056099;28;20929;-57
2022/08/25 12:44:42;;;;;;;15.93;7.80;;;30.70;50.90;;;;;;5056403;28;20493;-56
2022/08/25 12:47:30;;;;;;;10.97;7.90;;;30.50;51.30;;;;;;5056743;28;20518;-58
2022/08/25 12:50:27;;;;;;;13.20;8.43;;;30.40;51.60;;;;;;5056589;28;20433;-57
2022/08/25 12:52:58;;;;;;;13.03;8.33;;;30.20;51.80;;;;;;5054538;28;20580;-58
2022/08/25 12:55:27;;;;;;;8.73;7.60;;;30.10;52.20;;;;;;5057868;28;20552;-56
2022/08/25 12:57:59;;;;;;;8.60;7.33;;;30.20;52.20;;;;;;5057619;28;20528;-58
2022/08/25 13:00:29;;;;;;;8.37;7.30;;;30.20;51.90;;;;;;5055864;28;20848;-57
2022/08/25 13:03:20;;;;;;;11.20;7.50;;;30.20;51.70;;;;;;5055808;28;20545;-57
2022/08/25 13:06:21;;;;;;;9.50;7.53;;;30.30;51.30;;;;;;5073545;28;20473;-57
2022/08/25 13:09:25;;;;;;;9.50;8.30;;;30.50;50.80;;;;;;5074622;28;20544;-58
2022/08/25 13:12:02;;;;;;;9.90;7.03;;;30.80;50.10;;;;;;5051290;28;20500;-58
2022/08/25 13:14:37;;;;;;;7.80;7.07;;;31.00;49.50;;;;;;5061482;28;20869;-59